createdAt,value
2022-09-15T00:00:01.147Z,72
2022-09-15T00:00:46.938Z,72
2022-09-15T00:01:32.891Z,72
2022-09-15T00:02:18.912Z,72
2022-09-15T00:03:04.874Z,72
2022-09-15T00:03:50.837Z,93
2022-09-15T00:04:36.955Z,104
2022-09-15T00:06:13.862Z,102
2022-09-15T00:06:54.794Z,102
2022-09-15T00:07:40.788Z,101
2022-09-15T00:08:26.820Z,101
2022-09-15T00:09:12.827Z,263
2022-09-15T00:09:58.846Z,266
2022-09-15T00:10:45.066Z,266
2022-09-15T00:11:33.597Z,267
2022-09-15T00:12:16.889Z,267
2022-09-15T00:13:02.972Z,267
2022-09-15T00:13:48.869Z,267
2022-09-15T00:14:34.957Z,267
2022-09-15T00:15:20.954Z,267
2022-09-15T00:16:07.109Z,267
2022-09-15T00:16:53.053Z,267
2022-09-15T00:17:38.907Z,267
2022-09-15T00:18:24.878Z,267
2022-09-15T00:19:11.010Z,267
2022-09-15T00:19:56.897Z,268
2022-09-15T00:20:42.909Z,268
2022-09-15T00:21:29.059Z,249
2022-09-15T00:22:14.895Z,255
2022-09-15T00:23:00.937Z,264
2022-09-15T00:23:46.958Z,237
2022-09-15T00:24:32.929Z,243
2022-09-15T00:25:18.903Z,253
2022-09-15T00:26:04.938Z,147
2022-09-15T00:26:50.959Z,153
2022-09-15T00:27:37.064Z,89
2022-09-15T00:28:22.949Z,90
2022-09-15T00:29:08.958Z,91
2022-09-15T00:29:54.926Z,90
2022-09-15T00:30:41.245Z,89
2022-09-15T00:31:27.121Z,90
2022-09-15T00:32:13.001Z,90
2022-09-15T00:32:58.960Z,89
2022-09-15T00:33:45.023Z,131
2022-09-15T00:34:30.936Z,130
2022-09-15T00:35:17.017Z,130
2022-09-15T00:36:03.282Z,130
2022-09-15T00:36:48.994Z,129
2022-09-15T00:37:34.971Z,125
2022-09-15T00:38:21.100Z,125
2022-09-15T00:39:07.047Z,125
2022-09-15T00:39:53.077Z,125
2022-09-15T00:40:38.982Z,122
2022-09-15T00:41:24.987Z,122
2022-09-15T00:42:11.031Z,122
2022-09-15T00:42:57.017Z,122
2022-09-15T00:43:43.045Z,122
2022-09-15T00:44:29.021Z,122
2022-09-15T00:45:15.031Z,122
2022-09-15T00:46:01.169Z,122
2022-09-15T00:47:03.947Z,122
2022-09-15T00:47:33.088Z,122
2022-09-15T00:48:19.110Z,122
2022-09-15T00:49:04.979Z,122
2022-09-15T00:49:51.034Z,122
2022-09-15T00:50:37.109Z,122
2022-09-15T00:51:23.097Z,122
2022-09-15T00:52:09.123Z,122
2022-09-15T00:52:55.001Z,122
2022-09-15T00:53:41.220Z,122
2022-09-15T00:54:27.032Z,122
2022-09-15T00:55:13.227Z,122
2022-09-15T00:55:59.014Z,122
2022-09-15T00:56:45.150Z,122
2022-09-15T00:57:31.104Z,122
2022-09-15T00:58:17.256Z,122
2022-09-15T00:59:03.071Z,122
2022-09-15T00:59:49.118Z,122
2022-09-15T01:00:35.172Z,122
2022-09-15T01:01:21.186Z,122
2022-09-15T01:02:07.199Z,122
2022-09-15T01:02:53.122Z,122
2022-09-15T01:03:39.143Z,122
2022-09-15T01:04:25.102Z,122
2022-09-15T01:05:11.089Z,122
2022-09-15T01:05:57.146Z,122
2022-09-15T01:06:43.162Z,122
2022-09-15T01:07:29.746Z,122
2022-09-15T01:08:15.144Z,122
2022-09-15T01:09:01.128Z,122
2022-09-15T01:09:47.242Z,122
2022-09-15T01:10:33.147Z,122
2022-09-15T01:11:19.104Z,122
2022-09-15T01:12:05.146Z,122
2022-09-15T01:12:51.123Z,122
2022-09-15T01:13:37.152Z,122
2022-09-15T01:14:23.256Z,122
2022-09-15T01:15:09.205Z,122
2022-09-15T01:15:55.166Z,121
2022-09-15T01:16:41.303Z,121
2022-09-15T01:17:27.211Z,121
2022-09-15T01:18:13.213Z,103
2022-09-15T01:18:59.195Z,68
2022-09-15T01:19:45.177Z,72
2022-09-15T01:20:31.225Z,87
2022-09-15T01:21:17.245Z,82
2022-09-15T01:22:03.167Z,82
2022-09-15T01:22:49.319Z,82
2022-09-15T01:23:35.183Z,82
2022-09-15T01:24:21.264Z,82
2022-09-15T01:25:07.224Z,69
2022-09-15T01:25:53.260Z,106
2022-09-15T01:26:39.230Z,190
2022-09-15T01:27:41.622Z,189
2022-09-15T01:28:11.315Z,190
2022-09-15T01:28:57.200Z,174
2022-09-15T01:29:43.238Z,141
2022-09-15T01:30:29.929Z,129
2022-09-15T01:31:15.289Z,129
2022-09-15T01:32:01.401Z,129
2022-09-15T01:32:47.542Z,129
2022-09-15T01:33:33.271Z,129
2022-09-15T01:34:19.389Z,129
2022-09-15T01:35:05.264Z,129
2022-09-15T01:35:51.286Z,129
2022-09-15T01:36:37.285Z,121
2022-09-15T01:37:23.314Z,121
2022-09-15T01:38:09.341Z,121
2022-09-15T01:38:55.191Z,121
2022-09-15T01:39:41.269Z,120
2022-09-15T01:40:27.353Z,120
2022-09-15T01:41:13.263Z,121
2022-09-15T01:41:59.264Z,121
2022-09-15T01:42:45.275Z,120
2022-09-15T01:43:31.264Z,120
2022-09-15T01:44:17.346Z,120
2022-09-15T01:45:03.498Z,120
2022-09-15T01:45:49.337Z,120
2022-09-15T01:46:35.304Z,120
2022-09-15T01:47:21.329Z,120
2022-09-15T01:48:07.304Z,120
2022-09-15T01:48:53.387Z,120
2022-09-15T01:49:39.330Z,104
2022-09-15T01:50:25.383Z,82
2022-09-15T01:51:11.263Z,82
2022-09-15T01:51:57.332Z,81
2022-09-15T01:52:43.355Z,81
2022-09-15T01:53:30.012Z,81
2022-09-15T01:54:15.334Z,81
2022-09-15T01:55:01.300Z,81
2022-09-15T01:55:47.324Z,77
2022-09-15T01:56:33.453Z,86
2022-09-15T01:57:19.346Z,86
2022-09-15T01:58:05.377Z,85
2022-09-15T01:58:51.389Z,85
2022-09-15T01:59:37.299Z,111
2022-09-15T02:00:23.486Z,98
2022-09-15T02:01:09.393Z,96
2022-09-15T02:01:55.403Z,96
2022-09-15T02:02:41.493Z,96
2022-09-15T02:03:27.423Z,95
2022-09-15T02:04:13.360Z,94
2022-09-15T02:04:59.443Z,89
2022-09-15T02:05:45.421Z,96
2022-09-15T02:06:31.393Z,94
2022-09-15T02:07:17.427Z,90
2022-09-15T02:08:03.501Z,104
2022-09-15T02:08:49.432Z,87
2022-09-15T02:09:35.415Z,97
2022-09-15T02:10:21.390Z,45
2022-09-15T02:11:07.411Z,33
2022-09-15T02:11:53.560Z,40
2022-09-15T02:12:39.445Z,34
2022-09-15T02:13:25.428Z,47
2022-09-15T02:14:11.520Z,61
2022-09-15T02:14:57.681Z,61
2022-09-15T02:15:43.500Z,61
2022-09-15T02:16:30.240Z,90
2022-09-15T02:17:15.441Z,84
2022-09-15T02:18:01.424Z,82
2022-09-15T02:18:47.406Z,82
2022-09-15T02:19:33.438Z,40
2022-09-15T02:20:19.571Z,40
2022-09-15T02:21:05.457Z,45
2022-09-15T02:21:51.419Z,38
2022-09-15T02:22:37.592Z,38
2022-09-15T02:23:23.503Z,38
2022-09-15T02:24:09.483Z,38
2022-09-15T02:24:55.390Z,38
2022-09-15T02:25:41.606Z,47
2022-09-15T02:26:27.421Z,89
2022-09-15T02:27:13.430Z,89
2022-09-15T02:27:59.481Z,89
2022-09-15T02:28:45.538Z,89
2022-09-15T02:29:31.469Z,89
2022-09-15T02:30:17.643Z,89
2022-09-15T02:31:18.915Z,87
2022-09-15T02:31:49.555Z,86
2022-09-15T02:32:35.455Z,86
2022-09-15T02:33:21.580Z,86
2022-09-15T02:34:07.487Z,86
2022-09-15T02:34:58.537Z,86
2022-09-15T02:35:39.539Z,83
2022-09-15T02:36:25.479Z,83
2022-09-15T02:37:11.492Z,83
2022-09-15T02:37:57.487Z,83
2022-09-15T02:38:43.471Z,83
2022-09-15T02:39:30.115Z,83
2022-09-15T02:40:15.570Z,83
2022-09-15T02:41:01.494Z,82
2022-09-15T02:41:47.491Z,81
2022-09-15T02:42:33.637Z,81
2022-09-15T02:43:19.496Z,81
2022-09-15T02:44:05.490Z,81
2022-09-15T02:44:51.499Z,81
2022-09-15T02:45:37.688Z,81
2022-09-15T02:46:23.518Z,81
2022-09-15T02:47:09.501Z,81
2022-09-15T02:47:55.502Z,81
2022-09-15T02:48:41.509Z,82
2022-09-15T02:49:27.537Z,82
2022-09-15T02:50:13.520Z,61
2022-09-15T02:50:59.542Z,65
2022-09-15T02:51:45.544Z,65
2022-09-15T02:52:31.585Z,65
2022-09-15T02:53:17.516Z,61
2022-09-15T02:54:03.556Z,61
2022-09-15T02:54:49.535Z,61
2022-09-15T02:55:35.592Z,61
2022-09-15T02:56:21.620Z,61
2022-09-15T02:57:07.584Z,61
2022-09-15T02:57:53.570Z,61
2022-09-15T02:58:39.665Z,61
2022-09-15T02:59:25.611Z,61
2022-09-15T03:00:11.711Z,61
2022-09-15T03:00:57.636Z,61
2022-09-15T03:01:43.624Z,61
2022-09-15T03:02:30.347Z,61
2022-09-15T03:03:15.629Z,61
2022-09-15T03:04:01.901Z,61
2022-09-15T03:04:47.645Z,61
2022-09-15T03:05:33.656Z,61
2022-09-15T03:06:19.673Z,61
2022-09-15T03:07:05.599Z,61
2022-09-15T03:07:51.586Z,61
2022-09-15T03:08:37.636Z,61
2022-09-15T03:09:23.604Z,61
2022-09-15T03:10:09.644Z,61
2022-09-15T03:10:55.590Z,61
2022-09-15T03:11:41.636Z,61
2022-09-15T03:12:27.665Z,61
2022-09-15T03:13:13.627Z,61
2022-09-15T03:13:59.648Z,61
2022-09-15T03:14:45.639Z,61
2022-09-15T03:15:31.780Z,61
2022-09-15T03:16:17.687Z,61
2022-09-15T03:17:03.671Z,61
2022-09-15T03:17:49.648Z,61
2022-09-15T03:18:35.658Z,61
2022-09-15T03:19:21.706Z,61
2022-09-15T03:20:07.700Z,61
2022-09-15T03:20:53.682Z,61
2022-09-15T03:21:39.703Z,61
2022-09-15T03:22:25.705Z,61
2022-09-15T03:23:11.707Z,58
2022-09-15T03:23:57.723Z,58
2022-09-15T03:24:43.706Z,58
2022-09-15T03:25:30.188Z,38
2022-09-15T03:26:15.681Z,38
2022-09-15T03:27:01.791Z,38
2022-09-15T03:27:47.714Z,38
2022-09-15T03:28:33.699Z,38
2022-09-15T03:29:19.707Z,310
2022-09-15T03:30:05.713Z,312
2022-09-15T03:30:51.827Z,312
2022-09-15T03:31:37.850Z,312
2022-09-15T03:32:23.848Z,312
2022-09-15T03:33:09.801Z,312
2022-09-15T03:33:55.745Z,312
2022-09-15T03:34:41.738Z,312
2022-09-15T03:35:27.753Z,310
2022-09-15T03:36:13.739Z,310
2022-09-15T03:36:59.728Z,310
2022-09-15T03:37:45.749Z,311
2022-09-15T03:38:31.828Z,311
2022-09-15T03:39:17.786Z,310
2022-09-15T03:40:04.031Z,310
2022-09-15T03:40:49.753Z,310
2022-09-15T03:41:35.777Z,310
2022-09-15T03:42:21.813Z,310
2022-09-15T03:43:07.781Z,310
2022-09-15T03:43:53.747Z,299
2022-09-15T03:44:39.799Z,308
2022-09-15T03:45:25.863Z,308
2022-09-15T03:46:11.824Z,308
2022-09-15T03:46:57.791Z,308
2022-09-15T03:47:43.785Z,308
2022-09-15T03:48:30.320Z,308
2022-09-15T03:49:15.771Z,308
2022-09-15T03:50:02.009Z,339
2022-09-15T03:50:47.854Z,339
2022-09-15T03:51:33.806Z,339
2022-09-15T03:52:19.860Z,339
2022-09-15T03:53:05.793Z,339
2022-09-15T03:53:51.982Z,339
2022-09-15T03:54:37.812Z,337
2022-09-15T03:55:23.835Z,338
2022-09-15T03:56:09.817Z,338
2022-09-15T03:56:55.802Z,334
2022-09-15T03:57:41.823Z,333
2022-09-15T03:58:30.631Z,334
2022-09-15T03:59:13.829Z,331
2022-09-15T03:59:59.886Z,331
2022-09-15T04:00:46.002Z,328
2022-09-15T04:01:32.052Z,322
2022-09-15T04:02:17.939Z,322
2022-09-15T04:03:03.952Z,321
2022-09-15T04:03:51.354Z,321
2022-09-15T04:04:35.862Z,321
2022-09-15T04:05:21.898Z,311
2022-09-15T04:06:07.873Z,311
2022-09-15T04:06:53.885Z,312
2022-09-15T04:07:39.901Z,312
2022-09-15T04:08:25.865Z,312
2022-09-15T04:09:11.854Z,312
2022-09-15T04:09:57.931Z,312
2022-09-15T04:10:43.905Z,312
2022-09-15T04:11:30.302Z,312
2022-09-15T04:12:15.902Z,311
2022-09-15T04:13:01.941Z,308
2022-09-15T04:13:47.876Z,310
2022-09-15T04:14:33.950Z,310
2022-09-15T04:15:19.960Z,310
2022-09-15T04:16:06.181Z,310
2022-09-15T04:16:51.956Z,308
2022-09-15T04:17:37.944Z,309
2022-09-15T04:18:23.933Z,308
2022-09-15T04:19:09.962Z,309
2022-09-15T04:19:55.912Z,308
2022-09-15T04:20:41.987Z,309
2022-09-15T04:21:27.974Z,308
2022-09-15T04:22:17.647Z,308
2022-09-15T04:22:59.929Z,309
2022-09-15T04:23:45.930Z,310
2022-09-15T04:24:31.975Z,305
2022-09-15T04:25:18.015Z,303
2022-09-15T04:26:03.963Z,303
2022-09-15T04:26:49.990Z,303
2022-09-15T04:27:35.976Z,303
2022-09-15T04:28:22.084Z,303
2022-09-15T04:29:07.945Z,303
2022-09-15T04:29:53.968Z,303
2022-09-15T04:30:40.006Z,303
2022-09-15T04:31:26.048Z,303
2022-09-15T04:32:12.011Z,303
2022-09-15T04:32:57.970Z,303
2022-09-15T04:33:43.995Z,303
2022-09-15T04:34:30.384Z,303
2022-09-15T04:35:16.037Z,303
2022-09-15T04:36:02.142Z,303
2022-09-15T04:36:48.015Z,303
2022-09-15T04:37:34.341Z,303
2022-09-15T04:38:20.072Z,303
2022-09-15T04:39:06.033Z,341
2022-09-15T04:39:52.167Z,0
2022-09-15T04:40:38.113Z,357
2022-09-15T04:41:24.040Z,357
2022-09-15T04:42:10.029Z,357
2022-09-15T04:42:56.074Z,357
2022-09-15T04:43:42.057Z,357
2022-09-15T04:44:28.054Z,357
2022-09-15T04:45:14.092Z,355
2022-09-15T04:46:00.029Z,356
2022-09-15T04:46:46.173Z,356
2022-09-15T04:47:32.127Z,356
2022-09-15T04:48:18.060Z,356
2022-09-15T04:49:04.043Z,355
2022-09-15T04:49:50.023Z,356
2022-09-15T04:50:36.092Z,355
2022-09-15T04:51:22.144Z,355
2022-09-15T04:52:09.839Z,355
2022-09-15T04:52:54.057Z,355
2022-09-15T04:53:40.081Z,356
2022-09-15T04:54:26.045Z,356
2022-09-15T04:55:12.141Z,356
2022-09-15T04:55:58.084Z,281
2022-09-15T04:56:44.103Z,284
2022-09-15T04:57:30.244Z,285
2022-09-15T04:58:16.145Z,282
2022-09-15T04:59:04.117Z,289
2022-09-15T04:59:48.076Z,291
2022-09-15T05:00:34.180Z,291
2022-09-15T05:01:20.125Z,292
2022-09-15T05:02:06.186Z,292
2022-09-15T05:02:52.147Z,292
2022-09-15T05:03:38.090Z,292
2022-09-15T05:04:24.142Z,299
2022-09-15T05:05:10.125Z,299
2022-09-15T05:05:56.092Z,299
2022-09-15T05:06:42.163Z,299
2022-09-15T05:07:28.111Z,299
2022-09-15T05:08:14.087Z,299
2022-09-15T05:09:00.113Z,299
2022-09-15T05:09:46.138Z,299
2022-09-15T05:10:32.190Z,299
2022-09-15T05:11:18.179Z,299
2022-09-15T05:12:04.246Z,299
2022-09-15T05:12:50.132Z,299
2022-09-15T05:13:36.166Z,299
2022-09-15T05:14:22.187Z,299
2022-09-15T05:15:54.162Z,299
2022-09-15T05:16:40.335Z,299
2022-09-15T05:17:26.766Z,299
2022-09-15T05:18:12.127Z,299
2022-09-15T05:18:58.148Z,298
2022-09-15T05:19:44.163Z,298
2022-09-15T05:20:30.311Z,299
2022-09-15T05:21:16.146Z,299
2022-09-15T05:22:02.278Z,294
2022-09-15T05:22:48.188Z,298
2022-09-15T05:23:34.168Z,298
2022-09-15T05:24:20.148Z,298
2022-09-15T05:25:06.189Z,305
2022-09-15T05:25:59.491Z,338
2022-09-15T05:26:38.224Z,338
2022-09-15T05:27:24.238Z,322
2022-09-15T05:28:10.308Z,340
2022-09-15T05:28:56.318Z,350
2022-09-15T05:29:42.223Z,312
2022-09-15T05:30:37.800Z,308
2022-09-15T05:31:14.286Z,294
2022-09-15T05:32:00.332Z,308
2022-09-15T05:32:46.225Z,308
2022-09-15T05:33:32.373Z,308
2022-09-15T05:34:18.326Z,299
2022-09-15T05:35:04.223Z,299
2022-09-15T05:35:50.249Z,299
2022-09-15T05:36:36.263Z,288
2022-09-15T05:37:22.359Z,293
2022-09-15T05:38:08.253Z,321
2022-09-15T05:38:54.275Z,331
2022-09-15T05:39:40.261Z,335
2022-09-15T05:40:26.244Z,299
2022-09-15T05:41:19.563Z,299
2022-09-15T05:41:58.245Z,299
2022-09-15T05:42:44.243Z,299
2022-09-15T05:43:30.374Z,299
2022-09-15T05:44:16.249Z,299
2022-09-15T05:45:02.461Z,299
2022-09-15T05:45:48.293Z,299
2022-09-15T05:46:34.495Z,299
2022-09-15T05:47:20.234Z,299
2022-09-15T05:48:06.227Z,299
2022-09-15T05:48:52.309Z,299
2022-09-15T05:49:38.324Z,299
2022-09-15T05:50:24.257Z,299
2022-09-15T05:51:10.300Z,299
2022-09-15T05:51:56.306Z,299
2022-09-15T05:52:42.259Z,299
2022-09-15T05:53:28.267Z,299
2022-09-15T05:54:14.262Z,299
2022-09-15T05:55:00.299Z,299
2022-09-15T05:55:46.300Z,299
2022-09-15T05:56:32.479Z,299
2022-09-15T05:57:18.360Z,298
2022-09-15T05:58:04.376Z,294
2022-09-15T05:58:50.355Z,298
2022-09-15T05:59:36.315Z,299
2022-09-15T06:00:22.467Z,299
2022-09-15T06:01:08.321Z,298
2022-09-15T06:01:54.475Z,299
2022-09-15T06:02:40.406Z,299
2022-09-15T06:03:30.741Z,298
2022-09-15T06:04:12.366Z,298
2022-09-15T06:04:58.347Z,298
2022-09-15T06:05:44.342Z,298
2022-09-15T06:06:30.499Z,291
2022-09-15T06:07:16.397Z,292
2022-09-15T06:08:02.515Z,292
2022-09-15T06:08:48.670Z,292
2022-09-15T06:09:34.508Z,294
2022-09-15T06:10:20.365Z,280
2022-09-15T06:11:06.404Z,288
2022-09-15T06:11:52.465Z,289
2022-09-15T06:12:38.414Z,289
2022-09-15T06:13:24.381Z,288
2022-09-15T06:14:10.432Z,292
2022-09-15T06:14:56.371Z,292
2022-09-15T06:15:42.562Z,299
2022-09-15T06:16:28.616Z,299
2022-09-15T06:17:14.435Z,279
2022-09-15T06:18:00.437Z,292
2022-09-15T06:18:46.403Z,294
2022-09-15T06:19:32.561Z,292
2022-09-15T06:20:18.464Z,289
2022-09-15T06:21:04.391Z,283
2022-09-15T06:21:50.458Z,291
2022-09-15T06:22:36.556Z,293
2022-09-15T06:23:22.718Z,294
2022-09-15T06:24:08.448Z,293
2022-09-15T06:24:54.453Z,292
2022-09-15T06:25:40.479Z,292
2022-09-15T06:26:26.571Z,293
2022-09-15T06:27:12.544Z,293
2022-09-15T06:27:58.501Z,294
2022-09-15T06:28:44.529Z,294
2022-09-15T06:29:30.505Z,292
2022-09-15T06:30:16.614Z,293
2022-09-15T06:31:02.535Z,292
2022-09-15T06:31:48.558Z,294
2022-09-15T06:32:34.515Z,294
2022-09-15T06:33:20.543Z,293
2022-09-15T06:34:06.520Z,293
2022-09-15T06:34:52.592Z,293
2022-09-15T06:35:38.540Z,298
2022-09-15T06:36:24.567Z,299
2022-09-15T06:37:10.508Z,299
2022-09-15T06:37:56.484Z,299
2022-09-15T06:38:42.502Z,299
2022-09-15T06:39:28.491Z,299
2022-09-15T06:40:14.538Z,299
2022-09-15T06:41:00.503Z,299
2022-09-15T06:42:01.792Z,299
2022-09-15T06:42:32.612Z,299
2022-09-15T06:43:18.515Z,287
2022-09-15T06:44:04.586Z,289
2022-09-15T06:44:50.521Z,289
2022-09-15T06:45:36.585Z,291
2022-09-15T06:46:22.701Z,291
2022-09-15T06:47:08.567Z,291
2022-09-15T06:48:13.455Z,291
2022-09-15T06:48:40.581Z,291
2022-09-15T06:49:26.559Z,291
2022-09-15T06:50:12.527Z,291
2022-09-15T06:50:58.535Z,291
2022-09-15T06:51:44.578Z,291
2022-09-15T06:52:30.686Z,291
2022-09-15T06:53:16.572Z,291
2022-09-15T06:54:02.560Z,291
2022-09-15T06:54:48.595Z,291
2022-09-15T06:55:34.553Z,291
2022-09-15T06:56:20.557Z,291
2022-09-15T06:57:06.615Z,291
2022-09-15T06:57:52.646Z,291
2022-09-15T06:58:38.637Z,291
2022-09-15T06:59:24.555Z,291
2022-09-15T07:00:10.678Z,291
2022-09-15T07:00:56.567Z,291
2022-09-15T07:01:42.693Z,291
2022-09-15T07:02:28.745Z,291
2022-09-15T07:03:14.753Z,291
2022-09-15T07:04:00.799Z,291
2022-09-15T07:04:46.669Z,291
2022-09-15T07:05:32.634Z,291
2022-09-15T07:06:18.616Z,291
2022-09-15T07:07:04.655Z,291
2022-09-15T07:07:50.576Z,291
2022-09-15T07:08:36.637Z,291
2022-09-15T07:09:22.680Z,291
2022-09-15T07:10:08.682Z,291
2022-09-15T07:10:54.691Z,291
2022-09-15T07:11:40.649Z,291
2022-09-15T07:12:26.699Z,291
2022-09-15T07:13:12.707Z,291
2022-09-15T07:13:58.689Z,291
2022-09-15T07:14:44.641Z,291
2022-09-15T07:15:30.678Z,291
2022-09-15T07:16:16.748Z,291
2022-09-15T07:17:02.749Z,291
2022-09-15T07:17:49.591Z,291
2022-09-15T07:18:35.489Z,291
2022-09-15T07:19:20.700Z,291
2022-09-15T07:20:06.749Z,291
2022-09-15T07:20:52.708Z,291
2022-09-15T07:21:38.772Z,291
2022-09-15T07:22:24.695Z,291
2022-09-15T07:23:10.743Z,291
2022-09-15T07:23:56.721Z,291
2022-09-15T07:24:42.734Z,291
2022-09-15T07:25:29.044Z,292
2022-09-15T07:26:14.703Z,292
2022-09-15T07:27:00.743Z,292
2022-09-15T07:27:47.131Z,292
2022-09-15T07:28:32.787Z,292
2022-09-15T07:29:18.794Z,292
2022-09-15T07:30:04.806Z,292
2022-09-15T07:30:50.731Z,292
2022-09-15T07:31:37.074Z,292
2022-09-15T07:32:22.817Z,292
2022-09-15T07:33:08.867Z,292
2022-09-15T07:33:54.766Z,292
2022-09-15T07:34:40.741Z,292
2022-09-15T07:35:26.752Z,292
2022-09-15T07:36:12.802Z,292
2022-09-15T07:36:58.726Z,292
2022-09-15T07:37:44.787Z,292
2022-09-15T07:38:30.761Z,294
2022-09-15T07:39:26.834Z,298
2022-09-15T07:40:02.943Z,298
2022-09-15T07:40:48.823Z,298
2022-09-15T07:41:34.760Z,298
2022-09-15T07:42:20.765Z,298
2022-09-15T07:43:06.987Z,298
2022-09-15T07:43:52.909Z,298
2022-09-15T07:44:38.810Z,299
2022-09-15T07:45:25.906Z,299
2022-09-15T07:46:18.050Z,299
2022-09-15T07:46:56.821Z,299
2022-09-15T07:47:42.772Z,299
2022-09-15T07:48:28.799Z,299
2022-09-15T07:49:14.820Z,299
2022-09-15T07:50:00.816Z,299
2022-09-15T07:50:46.802Z,299
2022-09-15T07:51:32.831Z,300
2022-09-15T07:52:18.778Z,300
2022-09-15T07:53:04.832Z,301
2022-09-15T07:53:50.816Z,301
2022-09-15T07:54:37.036Z,301
2022-09-15T07:55:22.888Z,301
2022-09-15T07:56:08.802Z,299
2022-09-15T07:56:54.895Z,300
2022-09-15T07:57:40.843Z,300
2022-09-15T07:58:26.871Z,300
2022-09-15T07:59:12.823Z,300
2022-09-15T07:59:58.866Z,300
2022-09-15T08:00:44.988Z,300
2022-09-15T08:01:30.902Z,300
2022-09-15T08:02:16.965Z,300
2022-09-15T08:03:03.118Z,301
2022-09-15T08:03:49.044Z,301
2022-09-15T08:04:34.970Z,301
2022-09-15T08:05:20.895Z,301
2022-09-15T08:06:07.250Z,301
2022-09-15T08:06:52.941Z,301
2022-09-15T08:07:38.886Z,301
2022-09-15T08:08:24.942Z,302
2022-09-15T08:09:10.947Z,302
2022-09-15T08:09:56.885Z,302
2022-09-15T08:10:42.885Z,302
2022-09-15T08:11:28.890Z,302
2022-09-15T08:12:14.927Z,302
2022-09-15T08:13:00.923Z,302
2022-09-15T08:13:46.890Z,301
2022-09-15T08:14:32.912Z,302
2022-09-15T08:15:19.071Z,303
2022-09-15T08:16:05.021Z,304
2022-09-15T08:16:50.884Z,304
2022-09-15T08:17:37.142Z,306
2022-09-15T08:18:22.983Z,292
2022-09-15T08:19:08.938Z,292
2022-09-15T08:19:54.959Z,292
2022-09-15T08:20:41.001Z,292
2022-09-15T08:21:27.001Z,292
2022-09-15T08:22:12.941Z,292
2022-09-15T08:22:58.984Z,292
2022-09-15T08:23:44.961Z,291
2022-09-15T08:24:30.974Z,292
2022-09-15T08:25:16.950Z,292
2022-09-15T08:26:03.036Z,292
2022-09-15T08:26:48.974Z,292
2022-09-15T08:27:34.957Z,292
2022-09-15T08:28:20.997Z,292
2022-09-15T08:29:07.201Z,292
2022-09-15T08:29:53.028Z,292
2022-09-15T08:30:39.123Z,292
2022-09-15T08:31:25.262Z,292
2022-09-15T08:32:11.048Z,292
2022-09-15T08:32:56.992Z,293
2022-09-15T08:33:45.682Z,293
2022-09-15T08:34:29.035Z,293
2022-09-15T08:35:15.084Z,293
2022-09-15T08:36:01.385Z,293
2022-09-15T08:36:47.030Z,293
2022-09-15T08:37:33.043Z,293
2022-09-15T08:38:19.039Z,294
2022-09-15T08:39:04.999Z,294
2022-09-15T08:39:51.070Z,294
2022-09-15T08:40:37.398Z,293
2022-09-15T08:41:23.065Z,293
2022-09-15T08:42:09.032Z,294
2022-09-15T08:42:55.015Z,294
2022-09-15T08:43:41.064Z,294
2022-09-15T08:44:27.046Z,307
2022-09-15T08:45:13.120Z,308
2022-09-15T08:45:59.041Z,308
2022-09-15T08:46:45.131Z,307
2022-09-15T08:47:31.065Z,308
2022-09-15T08:48:17.081Z,308
2022-09-15T08:49:03.336Z,307
2022-09-15T08:49:51.982Z,308
2022-09-15T08:50:35.023Z,308
2022-09-15T08:51:21.019Z,308
2022-09-15T08:52:07.306Z,308
2022-09-15T08:52:53.125Z,308
2022-09-15T08:53:39.001Z,308
2022-09-15T08:54:25.031Z,308
2022-09-15T08:55:11.107Z,308
2022-09-15T08:55:57.046Z,308
2022-09-15T08:56:43.135Z,308
2022-09-15T08:57:29.149Z,308
2022-09-15T08:58:15.137Z,307
2022-09-15T08:59:01.075Z,307
2022-09-15T08:59:47.067Z,307
2022-09-15T09:00:33.177Z,294
2022-09-15T09:01:19.134Z,293
2022-09-15T09:02:05.178Z,294
2022-09-15T09:02:51.175Z,293
2022-09-15T09:03:37.382Z,295
2022-09-15T09:04:23.136Z,295
2022-09-15T09:05:09.050Z,295
2022-09-15T09:05:55.073Z,296
2022-09-15T09:06:41.073Z,296
2022-09-15T09:07:27.096Z,298
2022-09-15T09:08:13.081Z,291
2022-09-15T09:08:59.154Z,291
2022-09-15T09:09:45.104Z,297
2022-09-15T09:10:31.122Z,300
2022-09-15T09:11:17.097Z,300
2022-09-15T09:12:03.138Z,300
2022-09-15T09:12:49.087Z,298
2022-09-15T09:13:35.823Z,298
2022-09-15T09:14:21.122Z,298
2022-09-15T09:15:07.373Z,298
2022-09-15T09:15:53.253Z,302
2022-09-15T09:16:39.094Z,299
2022-09-15T09:17:25.177Z,299
2022-09-15T09:18:11.100Z,299
2022-09-15T09:18:57.151Z,294
2022-09-15T09:19:43.122Z,293
2022-09-15T09:20:29.156Z,293
2022-09-15T09:21:15.160Z,294
2022-09-15T09:22:01.170Z,291
2022-09-15T09:22:47.148Z,292
2022-09-15T09:23:33.179Z,291
2022-09-15T09:24:19.163Z,298
2022-09-15T09:25:21.295Z,298
2022-09-15T09:25:51.193Z,295
2022-09-15T09:26:37.367Z,292
2022-09-15T09:27:23.188Z,301
2022-09-15T09:28:09.114Z,302
2022-09-15T09:28:55.216Z,302
2022-09-15T09:29:41.130Z,302
2022-09-15T09:30:27.286Z,299
2022-09-15T09:31:13.159Z,293
2022-09-15T09:31:59.144Z,296
2022-09-15T09:32:45.220Z,294
2022-09-15T09:33:31.158Z,308
2022-09-15T09:34:17.243Z,308
2022-09-15T09:35:03.280Z,308
2022-09-15T09:35:49.143Z,308
2022-09-15T09:36:35.172Z,308
2022-09-15T09:37:21.141Z,306
2022-09-15T09:38:07.415Z,307
2022-09-15T09:38:53.229Z,307
2022-09-15T09:39:39.213Z,299
2022-09-15T09:40:25.211Z,299
2022-09-15T09:41:11.221Z,319
2022-09-15T09:41:57.167Z,319
2022-09-15T09:42:43.182Z,319
2022-09-15T09:43:29.212Z,318
2022-09-15T09:44:15.198Z,314
2022-09-15T09:45:01.748Z,314
2022-09-15T09:45:47.276Z,316
2022-09-15T09:46:33.302Z,316
2022-09-15T09:47:19.223Z,291
2022-09-15T09:48:05.200Z,290
2022-09-15T09:48:51.254Z,295
2022-09-15T09:49:37.387Z,301
2022-09-15T09:50:23.291Z,306
2022-09-15T09:51:09.176Z,307
2022-09-15T09:51:55.289Z,307
2022-09-15T09:52:41.193Z,307
2022-09-15T09:53:27.269Z,308
2022-09-15T09:54:13.234Z,307
2022-09-15T09:54:59.278Z,308
2022-09-15T09:55:45.198Z,308
2022-09-15T09:56:31.240Z,308
2022-09-15T09:57:17.287Z,306
2022-09-15T09:58:03.224Z,308
2022-09-15T09:58:49.222Z,308
2022-09-15T09:59:35.267Z,298
2022-09-15T10:00:21.336Z,313
2022-09-15T10:01:07.490Z,305
2022-09-15T10:01:53.321Z,294
2022-09-15T10:02:39.202Z,302
2022-09-15T10:03:29.312Z,298
2022-09-15T10:04:11.240Z,299
2022-09-15T10:04:57.435Z,299
2022-09-15T10:05:43.276Z,299
2022-09-15T10:06:29.256Z,299
2022-09-15T10:07:15.456Z,299
2022-09-15T10:08:01.928Z,299
2022-09-15T10:08:47.403Z,298
2022-09-15T10:09:33.606Z,299
2022-09-15T10:10:19.442Z,299
2022-09-15T10:11:05.377Z,299
2022-09-15T10:11:51.506Z,301
2022-09-15T10:12:37.675Z,0
2022-09-15T10:13:23.472Z,282
2022-09-15T10:14:09.373Z,282
2022-09-15T10:14:55.402Z,292
2022-09-15T10:15:41.501Z,292
2022-09-15T10:16:27.460Z,292
2022-09-15T10:17:13.376Z,292
2022-09-15T10:17:59.406Z,292
2022-09-15T10:18:45.412Z,292
2022-09-15T10:19:31.421Z,292
2022-09-15T10:20:17.408Z,300
2022-09-15T10:21:03.513Z,302
2022-09-15T10:21:49.414Z,299
2022-09-15T10:22:35.441Z,300
2022-09-15T10:23:21.424Z,292
2022-09-15T10:24:07.634Z,293
2022-09-15T10:24:53.476Z,293
2022-09-15T10:25:58.043Z,283
2022-09-15T10:26:25.448Z,283
2022-09-15T10:27:11.389Z,309
2022-09-15T10:27:57.546Z,334
2022-09-15T10:28:43.444Z,293
2022-09-15T10:29:29.959Z,295
2022-09-15T10:30:15.543Z,289
2022-09-15T10:31:01.427Z,300
2022-09-15T10:31:47.645Z,299
2022-09-15T10:32:33.608Z,299
2022-09-15T10:33:19.457Z,298
2022-09-15T10:34:05.469Z,284
2022-09-15T10:34:51.483Z,284
2022-09-15T10:35:37.733Z,285
2022-09-15T10:36:23.561Z,288
2022-09-15T10:37:09.465Z,288
2022-09-15T10:37:55.477Z,288
2022-09-15T10:38:41.499Z,281